Time;durP1;ratioP1;P1;durP2;ratioP2;P2;SDS_P1;SDS_P2;PMS_P1;PMS_P2;Temp;Humidity;BMP_temperature;BMP_pressure;BME280_temperature;BME280_humidity;BME280_pressure;Samples;Min_cycle;Max_cycle;Signal;HPM_P1;HPM_P2
2021/10/26 00:01:06;;;;;;;;;;;;;;;;;;5093050;28;19916;-80
2021/10/26 00:03:32;;;;;;;;;;;;;;;;;;5092943;28;19962;-80
2021/10/26 00:05:58;;;;;;;;;;;;;;;;;;5092960;28;19923;-79
2021/10/26 00:08:23;;;;;;;;;;;;;;;;;;5092331;28;19916;-79
2021/10/26 00:10:48;;;;;;;;;;;;;;;;;;5092740;28;19924;-80
2021/10/26 00:13:14;;;;;;;;;;;;;;;;;;5092884;28;19966;-80
2021/10/26 00:15:40;;;;;;;;;;;;;;;;;;5092866;28;19977;-82
2021/10/26 00:18:05;;;;;;;;;;;;;;;;;;5092837;28;20010;-82
2021/10/26 00:20:31;;;;;;;;;;;;;;;;;;5092850;28;20273;-80
2021/10/26 00:22:59;;;;;;;;;;;;;;;;;;5092743;28;19935;-82
2021/10/26 00:25:25;;;;;;;;;;;;;;;;;;5092594;28;19924;-80
2021/10/26 00:27:50;;;;;;;;;;;;;;;;;;5092739;28;19961;-81
2021/10/26 00:30:16;;;;;;;;;;;;;;;;;;5092634;28;19916;-81
2021/10/26 00:32:41;;;;;;;;;;;;;;;;;;5092677;28;20014;-83
2021/10/26 00:35:07;;;;;;;;;;;;;;;;;;5092690;28;19924;-80
2021/10/26 00:37:33;;;;;;;;;;;;;;;;;;5094179;28;19916;-81
2021/10/26 00:39:58;;;;;;;;;;;;;;;;;;5096438;28;19916;-81
2021/10/26 00:42:23;;;;;;;;;;;;;;;;;;5096257;28;19916;-80
2021/10/26 00:44:49;;;;;;;;;;;;;;;;;;5096061;28;19916;-81
2021/10/26 00:47:14;;;;;;;;;;;;;;;;;;5096266;28;19920;-80
2021/10/26 00:49:40;;;;;;;;;;;;;;;;;;5096319;28;19916;-80
2021/10/26 00:52:06;;;;;;;;;;;;;;;;;;5094853;28;20410;-80
2021/10/26 00:54:31;;;;;;;;;;;;;;;;;;5096005;28;19916;-82
2021/10/26 00:56:58;;;;;;;;;;;;;;;;;;5095988;28;19920;-82
2021/10/26 00:59:23;;;;;;;;;;;;;;;;;;5095947;28;19956;-81
2021/10/26 01:01:49;;;;;;;;;;;;;;;;;;5095881;28;20392;-80
2021/10/26 01:04:14;;;;;;;;;;;;;;;;;;5095853;28;19920;-80
2021/10/26 01:06:40;;;;;;;;;;;;;;;;;;5095845;28;19916;-80
2021/10/26 01:09:06;;;;;;;;;;;;;;;;;;5095732;28;19916;-81
2021/10/26 01:11:32;;;;;;;;;;;;;;;;;;5095493;28;19920;-80
2021/10/26 01:13:57;;;;;;;;;;;;;;;;;;5095681;28;19923;-80
2021/10/26 01:16:24;;;;;;;;;;;;;;;;;;5095659;28;20291;-81
2021/10/26 01:18:50;;;;;;;;;;;;;;;;;;5095601;28;20369;-81
2021/10/26 01:21:16;;;;;;;;;;;;;;;;;;5095547;28;19951;-82
2021/10/26 01:23:41;;;;;;;;;;;;;;;;;;5095523;28;19926;-81
2021/10/26 01:26:07;;;;;;;;;;;;;;;;;;5128254;27;19916;-81
2021/10/26 01:28:32;;;;;;;;;;;;;;;;;;5095511;28;20287;-81
2021/10/26 01:30:58;;;;;;;;;;;;;;;;;;5095373;28;19912;-80
2021/10/26 01:33:23;;;;;;;;;;;;;;;;;;5095260;28;19951;-82
2021/10/26 01:35:49;;;;;;;;;;;;;;;;;;5095247;28;19916;-80
2021/10/26 01:38:14;;;;;;;;;;;;;;;;;;5095204;28;20342;-81
2021/10/26 01:40:40;;;;;;;;;;;;;;;;;;5095243;28;19920;-79
2021/10/26 01:43:06;;;;;;;;;;;;;;;;;;5095098;28;19912;-80
2021/10/26 01:45:31;;;;;;;;;;;;;;;;;;5095280;28;20391;-79
2021/10/26 01:47:57;;;;;;;;;;;;;;;;;;5095068;28;20007;-80
2021/10/26 01:50:23;;;;;;;;;;;;;;;;;;5098540;28;20019;-81
2021/10/26 01:52:49;;;;;;;;;;;;;;;;;;5095797;28;20042;-81
2021/10/26 01:55:15;;;;;;;;;;;;;;;;;;5104729;28;19927;-81
2021/10/26 01:57:41;;;;;;;;;;;;;;;;;;5106544;28;19966;-79
2021/10/26 02:00:08;;;;;;;;;;;;;;;;;;5096148;28;19916;-80
2021/10/26 02:02:34;;;;;;;;;;;;;;;;;;5095608;28;19917;-79
2021/10/26 02:05:00;;;;;;;;;;;;;;;;;;5094977;28;20007;-79
2021/10/26 02:07:25;;;;;;;;;;;;;;;;;;5095634;28;19951;-79
2021/10/26 02:09:51;;;;;;;;;;;;;;;;;;5094663;28;19930;-79
2021/10/26 02:12:16;;;;;;;;;;;;;;;;;;5094508;28;19951;-80
2021/10/26 02:14:41;;;;;;;;;;;;;;;;;;5094375;28;19943;-80
2021/10/26 02:17:07;;;;;;;;;;;;;;;;;;5094560;28;20000;-79
2021/10/26 02:19:32;;;;;;;;;;;;;;;;;;5094461;28;20321;-81
2021/10/26 02:21:58;;;;;;;;;;;;;;;;;;5094512;28;19966;-82
2021/10/26 02:24:24;;;;;;;;;;;;;;;;;;5094464;28;19916;-82
2021/10/26 02:26:49;;;;;;;;;;;;;;;;;;5094441;28;19917;-82
2021/10/26 02:29:15;;;;;;;;;;;;;;;;;;5094453;28;19955;-81
2021/10/26 02:31:40;;;;;;;;;;;;;;;;;;5094386;28;19916;-80
2021/10/26 02:34:06;;;;;;;;;;;;;;;;;;5094266;28;19969;-83
2021/10/26 02:36:31;;;;;;;;;;;;;;;;;;5094180;28;20395;-79
2021/10/26 02:38:57;;;;;;;;;;;;;;;;;;5094125;28;20330;-81
2021/10/26 02:41:22;;;;;;;;;;;;;;;;;;5094120;28;19920;-81
2021/10/26 02:43:47;;;;;;;;;;;;;;;;;;5094026;28;19954;-81
2021/10/26 02:46:13;;;;;;;;;;;;;;;;;;5093988;28;19916;-82
2021/10/26 02:48:42;;;;;;;;;;;;;;;;;;5093655;28;20370;-80
2021/10/26 02:51:07;;;;;;;;;;;;;;;;;;5096463;28;19926;-81
2021/10/26 02:53:33;;;;;;;;;;;;;;;;;;5093391;28;20014;-81
2021/10/26 02:55:58;;;;;;;;;;;;;;;;;;5093869;28;19916;-81
2021/10/26 02:58:24;;;;;;;;;;;;;;;;;;5093527;28;19981;-81
2021/10/26 03:00:49;;;;;;;;;;;;;;;;;;5093559;28;20300;-80
2021/10/26 03:03:14;;;;;;;;;;;;;;;;;;5093723;28;19920;-81
2021/10/26 03:05:40;;;;;;;;;;;;;;;;;;5093490;28;20373;-81
2021/10/26 03:08:06;;;;;;;;;;;;;;;;;;5093608;28;19920;-81
2021/10/26 03:10:34;;;;;;;;;;;;;;;;;;5103343;28;19935;-80
2021/10/26 03:12:59;;;;;;;;;;;;;;;;;;5093251;28;20342;-83
2021/10/26 03:15:25;;;;;;;;;;;;;;;;;;5090020;28;20011;-86
2021/10/26 03:17:51;;;;;;;;;;;;;;;;;;5092940;28;19923;-85
2021/10/26 03:20:16;;;;;;;;;;;;;;;;;;5092960;28;19920;-83
2021/10/26 03:22:42;;;;;;;;;;;;;;;;;;5092856;28;19920;-81
2021/10/26 03:25:07;;;;;;;;;;;;;;;;;;5092714;28;19924;-83
2021/10/26 03:27:34;;;;;;;;;;;;;;;;;;5092656;28;19920;-83
2021/10/26 03:30:00;;;;;;;;;;;;;;;;;;5092700;28;20005;-85
2021/10/26 03:32:26;;;;;;;;;;;;;;;;;;5086939;28;20367;-85
2021/10/26 03:34:52;;;;;;;;;;;;;;;;;;5092629;28;20307;-82
2021/10/26 03:37:17;;;;;;;;;;;;;;;;;;5093369;28;19916;-84
2021/10/26 03:39:44;;;;;;;;;;;;;;;;;;5093142;28;19927;-83
2021/10/26 03:42:10;;;;;;;;;;;;;;;;;;5083449;28;20429;-81
2021/10/26 03:44:35;;;;;;;;;;;;;;;;;;5093114;28;19995;-83
2021/10/26 03:47:01;;;;;;;;;;;;;;;;;;5086364;28;19939;-82
2021/10/26 03:49:26;;;;;;;;;;;;;;;;;;5093020;28;20291;-83
2021/10/26 03:51:52;;;;;;;;;;;;;;;;;;5091815;28;19938;-83
2021/10/26 03:54:17;;;;;;;;;;;;;;;;;;5091873;28;19916;-82
2021/10/26 03:56:43;;;;;;;;;;;;;;;;;;5092106;28;19916;-86
2021/10/26 03:59:10;;;;;;;;;;;;;;;;;;5089579;28;19921;-83
2021/10/26 04:01:36;;;;;;;;;;;;;;;;;;5092963;28;19924;-82
2021/10/26 04:04:02;;;;;;;;;;;;;;;;;;5092954;28;20006;-81
2021/10/26 04:06:28;;;;;;;;;;;;;;;;;;5092916;28;20383;-83
2021/10/26 04:09:09;;;;;;;;;;;;;;;;;;5073103;28;20003;-82
2021/10/26 04:11:53;;;;;;;;;;;;;;;;;;5072611;28;19931;-81
2021/10/26 04:14:19;;;;;;;;;;;;;;;;;;5076547;28;19917;-84
2021/10/26 04:16:44;;;;;;;;;;;;;;;;;;5087933;28;19949;-82
2021/10/26 04:19:10;;;;;;;;;;;;;;;;;;5095925;28;19923;-82
2021/10/26 04:21:35;;;;;;;;;;;;;;;;;;5095549;28;19916;-83
2021/10/26 04:24:01;;;;;;;;;;;;;;;;;;5095565;28;19988;-81
2021/10/26 04:26:27;;;;;;;;;;;;;;;;;;5096003;28;20261;-82
2021/10/26 04:28:53;;;;;;;;;;;;;;;;;;5096199;28;20025;-83
2021/10/26 04:31:18;;;;;;;;;;;;;;;;;;5096764;28;19951;-84
2021/10/26 04:33:43;;;;;;;;;;;;;;;;;;5094777;28;19926;-80
2021/10/26 04:36:09;;;;;;;;;;;;;;;;;;5095830;28;19920;-81
2021/10/26 04:38:34;;;;;;;;;;;;;;;;;;5096037;28;19924;-83
2021/10/26 04:41:02;;;;;;;;;;;;;;;;;;5094401;28;19924;-84
2021/10/26 04:43:27;;;;;;;;;;;;;;;;;;5084254;28;20010;-82
2021/10/26 04:45:53;;;;;;;;;;;;;;;;;;5090819;28;20023;-81
2021/10/26 04:48:19;;;;;;;;;;;;;;;;;;5089616;28;20053;-80
2021/10/26 04:50:45;;;;;;;;;;;;;;;;;;5076735;28;20375;-82
2021/10/26 04:53:11;;;;;;;;;;;;;;;;;;5079895;28;19925;-85
2021/10/26 04:55:36;;;;;;;;;;;;;;;;;;5082728;28;19926;-80
2021/10/26 04:58:02;;;;;;;;;;;;;;;;;;5083764;28;20284;-81
2021/10/26 05:00:29;;;;;;;;;;;;;;;;;;5095811;28;19927;-81
2021/10/26 05:02:55;;;;;;;;;;;;;;;;;;5095503;28;20023;-80
2021/10/26 05:05:20;;;;;;;;;;;;;;;;;;5096005;28;20006;-80
2021/10/26 05:07:46;;;;;;;;;;;;;;;;;;5094544;28;19931;-80
2021/10/26 05:10:12;;;;;;;;;;;;;;;;;;5095559;28;19916;-80
2021/10/26 05:12:38;;;;;;;;;;;;;;;;;;5096123;28;20340;-79
2021/10/26 05:15:03;;;;;;;;;;;;;;;;;;5095742;28;19966;-79
2021/10/26 05:17:29;;;;;;;;;;;;;;;;;;5095721;28;19948;-79
2021/10/26 05:19:55;;;;;;;;;;;;;;;;;;5092140;28;19946;-80
2021/10/26 05:22:23;;;;;;;;;;;;;;;;;;5082705;28;20380;-81
2021/10/26 05:24:49;;;;;;;;;;;;;;;;;;5081780;28;19927;-79
2021/10/26 05:27:16;;;;;;;;;;;;;;;;;;5084385;28;19920;-78
2021/10/26 05:29:42;;;;;;;;;;;;;;;;;;5090592;28;19920;-85
2021/10/26 05:32:08;;;;;;;;;;;;;;;;;;5094644;28;19938;-80
2021/10/26 05:34:38;;;;;;;;;;;;;;;;;;5097154;28;20372;-80
2021/10/26 05:37:04;;;;;;;;;;;;;;;;;;5079555;28;19916;-79
2021/10/26 05:39:29;;;;;;;;;;;;;;;;;;5101958;28;19916;-85
2021/10/26 05:41:55;;;;;;;;;;;;;;;;;;5100969;28;19924;-78
2021/10/26 05:44:20;;;;;;;;;;;;;;;;;;5095271;28;19916;-79
2021/10/26 05:46:46;;;;;;;;;;;;;;;;;;5095429;28;19946;-80
2021/10/26 05:49:11;;;;;;;;;;;;;;;;;;5095248;28;19916;-79
2021/10/26 05:51:37;;;;;;;;;;;;;;;;;;5095096;28;19982;-78
2021/10/26 05:54:02;;;;;;;;;;;;;;;;;;5091233;28;19920;-79
2021/10/26 05:56:27;;;;;;;;;;;;;;;;;;5085324;28;19966;-78
2021/10/26 05:58:54;;;;;;;;;;;;;;;;;;5074670;28;19921;-79
2021/10/26 06:01:21;;;;;;;;;;;;;;;;;;5074661;28;19973;-78
2021/10/26 06:03:46;;;;;;;;;;;;;;;;;;5073081;28;19924;-82
2021/10/26 06:06:12;;;;;;;;;;;;;;;;;;5074845;28;19917;-79
2021/10/26 06:08:37;;;;;;;;;;;;;;;;;;5088325;28;19924;-80
2021/10/26 06:11:08;;;;;;;;;;;;;;;;;;5093605;28;19927;-78
2021/10/26 06:13:36;;;;;;;;;;;;;;;;;;5090769;28;19920;-87
2021/10/26 06:16:01;;;;;;;;;;;;;;;;;;5092964;28;19916;-80
2021/10/26 06:18:27;;;;;;;;;;;;;;;;;;5095933;28;19927;-86
2021/10/26 06:20:52;;;;;;;;;;;;;;;;;;5092930;28;20022;-81
2021/10/26 06:23:18;;;;;;;;;;;;;;;;;;5093740;28;19955;-80
2021/10/26 06:25:43;;;;;;;;;;;;;;;;;;5093954;28;19949;-79
2021/10/26 06:28:09;;;;;;;;;;;;;;;;;;5093745;28;20284;-79
2021/10/26 06:30:34;;;;;;;;;;;;;;;;;;5094168;28;19924;-85
2021/10/26 06:33:00;;;;;;;;;;;;;;;;;;5093964;28;19926;-80
2021/10/26 06:35:25;;;;;;;;;;;;;;;;;;5091909;28;19962;-83
2021/10/26 06:37:51;;;;;;;;;;;;;;;;;;5087701;28;19985;-80
2021/10/26 06:40:17;;;;;;;;;;;;;;;;;;5092143;28;20261;-90
2021/10/26 06:42:43;;;;;;;;;;;;;;;;;;5093579;28;19967;-79
2021/10/26 06:45:09;;;;;;;;;;;;;;;;;;5093095;28;20027;-86
2021/10/26 06:47:35;;;;;;;;;;;;;;;;;;5093751;28;20294;-84
2021/10/26 06:50:01;;;;;;;;;;;;;;;;;;5092466;28;19916;-79
2021/10/26 06:52:26;;;;;;;;;;;;;;;;;;5090731;28;19923;-86
2021/10/26 06:54:52;;;;;;;;;;;;;;;;;;5093356;28;19924;-83
2021/10/26 06:57:20;;;;;;;;;;;;;;;;;;5093340;28;20443;-87
2021/10/26 06:59:45;;;;;;;;;;;;;;;;;;5093020;28;20351;-85
2021/10/26 07:02:10;;;;;;;;;;;;;;;;;;5091896;28;19917;-85
2021/10/26 07:04:36;;;;;;;;;;;;;;;;;;5093016;28;19923;-87
2021/10/26 07:07:02;;;;;;;;;;;;;;;;;;5092968;28;20382;-86
2021/10/26 07:09:28;;;;;;;;;;;;;;;;;;5091846;28;19928;-84
2021/10/26 07:11:53;;;;;;;;;;;;;;;;;;5093134;28;19977;-87
2021/10/26 07:14:19;;;;;;;;;;;;;;;;;;5097140;28;19932;-87
2021/10/26 07:16:44;;;;;;;;;;;;;;;;;;5098615;28;19912;-90
2021/10/26 07:19:10;;;;;;;;;;;;;;;;;;5085194;28;20182;-89
2021/10/26 07:21:35;;;;;;;;;;;;;;;;;;5093189;28;20010;-80
2021/10/26 07:24:01;;;;;;;;;;;;;;;;;;5092870;28;20405;-78
2021/10/26 07:26:27;;;;;;;;;;;;;;;;;;5093125;28;19938;-79
2021/10/26 07:28:54;;;;;;;;;;;;;;;;;;5093257;28;19998;-80
2021/10/26 07:31:23;;;;;;;;;;;;;;;;;;5092967;28;19920;-78
2021/10/26 07:33:49;;;;;;;;;;;;;;;;;;5093115;28;20409;-82
2021/10/26 07:36:15;;;;;;;;;;;;;;;;;;5092987;28;20038;-79
2021/10/26 07:38:41;;;;;;;;;;;;;;;;;;5093240;28;19965;-79
2021/10/26 07:41:08;;;;;;;;;;;;;;;;;;5093079;28;20000;-78
2021/10/26 07:43:34;;;;;;;;;;;;;;;;;;5094369;28;19917;-85
2021/10/26 07:46:00;;;;;;;;;;;;;;;;;;5093086;28;19916;-78
2021/10/26 07:48:25;;;;;;;;;;;;;;;;;;5096819;28;20034;-86
2021/10/26 07:50:53;;;;;;;;;;;;;;;;;;5097431;28;19923;-86
2021/10/26 07:53:19;;;;;;;;;;;;;;;;;;5097193;28;20394;-86
2021/10/26 07:55:46;;;;;;;;;;;;;;;;;;5097045;28;19923;-84
2021/10/26 07:58:11;;;;;;;;;;;;;;;;;;5096933;28;19920;-84
2021/10/26 08:00:37;;;;;;;;;;;;;;;;;;5096874;28;19923;-82
2021/10/26 08:03:02;;;;;;;;;;;;;;;;;;5097443;28;19916;-80
2021/10/26 08:05:28;;;;;;;;;;;;;;;;;;5096275;28;19916;-80
2021/10/26 08:07:54;;;;;;;;;;;;;;;;;;5093907;28;19920;-79
2021/10/26 08:10:20;;;;;;;;;;;;;;;;;;5096279;28;19981;-79
2021/10/26 08:12:45;;;;;;;;;;;;;;;;;;5095035;28;19924;-80
2021/10/26 08:15:11;;;;;;;;;;;;;;;;;;5094825;28;19920;-81
2021/10/26 08:17:36;;;;;;;;;;;;;;;;;;5096484;28;19939;-80
2021/10/26 08:20:02;;;;;;;;;;;;;;;;;;5095952;28;19920;-80
2021/10/26 08:22:28;;;;;;;;;;;;;;;;;;5097030;28;19920;-85
2021/10/26 08:24:59;;;;;;;;;;;;;;;;;;5096552;28;19916;-81
2021/10/26 08:27:25;;;;;;;;;;;;;;;;;;5088926;28;19927;-80
2021/10/26 08:30:15;;;;;;;;;;;;;;;;;;5086510;28;20559;-83
2021/10/26 08:37:58;;;;;;;;;;;;;;;;;;5084003;28;20390;-84
2021/10/26 08:40:24;;;;;;;;;;;;;;;;;;5084274;28;19935;-78
2021/10/26 08:42:50;;;;;;;;;;;;;;;;;;5086778;28;19924;-81
2021/10/26 08:45:18;;;;;;;;;;;;;;;;;;5095962;28;19927;-81
2021/10/26 08:47:45;;;;;;;;;;;;;;;;;;5095463;28;19924;-82
2021/10/26 08:50:11;;;;;;;;;;;;;;;;;;5094150;28;19993;-82
2021/10/26 08:52:36;;;;;;;;;;;;;;;;;;5094716;28;19963;-81
2021/10/26 08:55:03;;;;;;;;;;;;;;;;;;5095243;28;19963;-80
2021/10/26 08:57:28;;;;;;;;;;;;;;;;;;5088876;28;19970;-79
2021/10/26 08:59:58;;;;;;;;;;;;;;;;;;5089823;28;19963;-80
2021/10/26 09:02:36;;;;;;;;;;;;;;;;;;5095387;28;19912;-80
2021/10/26 09:05:07;;;;;;;;;;;;;;;;;;5091898;28;19924;-82
2021/10/26 09:07:32;;;;;;;;;;;;;;;;;;5083364;28;20028;-80
2021/10/26 09:10:07;;;;;;;;;;;;;;;;;;5093609;28;19986;-89
2021/10/26 09:17:48;;;;;;;;;;;;;;;;;;5087291;28;19927;-78
2021/10/26 09:20:21;;;;;;;;;;;;;;;;;;5086420;28;19916;-78
2021/10/26 09:22:51;;;;;;;;;;;;;;;;;;5094781;28;19924;-84
2021/10/26 09:25:18;;;;;;;;;;;;;;;;;;5094189;28;19924;-84
2021/10/26 09:27:44;;;;;;;;;;;;;;;;;;5095197;28;19916;-88
2021/10/26 09:30:13;;;;;;;;;;;;;;;;;;5095241;28;19950;-87
2021/10/26 09:32:40;;;;;;;;;;;;;;;;;;5084882;28;19923;-82
2021/10/26 09:35:10;;;;;;;;;;;;;;;;;;5094283;28;20001;-79
2021/10/26 09:37:37;;;;;;;;;;;;;;;;;;5069832;28;20388;-79
2021/10/26 09:40:04;;;;;;;;;;;;;;;;;;5075351;28;19917;-79
2021/10/26 09:42:40;;;;;;;;;;;;;;;;;;5075153;28;19916;-80
2021/10/26 09:45:05;;;;;;;;;;;;;;;;;;5089744;28;19934;-81
2021/10/26 09:47:34;;;;;;;;;;;;;;;;;;5096276;28;20046;-79
2021/10/26 09:50:19;;;;;;;;;;;;;;;;;;5099800;28;19969;-78
2021/10/26 09:52:47;;;;;;;;;;;;;;;;;;5093276;28;19920;-79
2021/10/26 09:55:14;;;;;;;;;;;;;;;;;;5096497;28;20317;-84
2021/10/26 09:58:00;;;;;;;;;;;;;;;;;;5095232;28;20015;-79
2021/10/26 10:00:26;;;;;;;;;;;;;;;;;;5095165;28;20367;-78
2021/10/26 10:03:13;;;;;;;;;;;;;;;;;;5094005;28;20007;-79
2021/10/26 10:05:43;;;;;;;;;;;;;;;;;;5092309;28;19920;-81
2021/10/26 10:08:27;;;;;;;;;;;;;;;;;;5093944;28;19916;-82
2021/10/26 10:10:54;;;;;;;;;;;;;;;;;;5093198;28;19920;-83
2021/10/26 10:13:21;;;;;;;;;;;;;;;;;;5094481;28;19916;-82
2021/10/26 10:15:47;;;;;;;;;;;;;;;;;;5087876;28;19967;-83
2021/10/26 10:18:14;;;;;;;;;;;;;;;;;;5090626;28;19916;-83
2021/10/26 10:20:40;;;;;;;;;;;;;;;;;;5094297;28;19912;-88
2021/10/26 10:23:06;;;;;;;;;;;;;;;;;;5094336;28;19927;-88
2021/10/26 10:25:31;;;;;;;;;;;;;;;;;;5094074;28;19972;-82
2021/10/26 10:27:57;;;;;;;;;;;;;;;;;;5094262;28;19970;-82
2021/10/26 10:30:22;;;;;;;;;;;;;;;;;;5094013;28;20368;-82
2021/10/26 10:32:48;;;;;;;;;;;;;;;;;;5093102;28;19966;-82
2021/10/26 10:35:16;;;;;;;;;;;;;;;;;;5093881;28;19928;-81
2021/10/26 10:37:42;;;;;;;;;;;;;;;;;;5095027;28;19923;-81
2021/10/26 10:40:08;;;;;;;;;;;;;;;;;;5094263;28;19916;-80
2021/10/26 10:42:43;;;;;;;;;;;;;;;;;;5093866;28;19916;-79
2021/10/26 10:45:25;;;;;;;;;;;;;;;;;;5088544;28;20018;-79
2021/10/26 10:47:52;;;;;;;;;;;;;;;;;;5089659;28;19946;-83
2021/10/26 10:50:17;;;;;;;;;;;;;;;;;;5093795;28;20059;-85
2021/10/26 10:52:43;;;;;;;;;;;;;;;;;;5089774;28;20008;-83
2021/10/26 10:55:29;;;;;;;;;;;;;;;;;;5076404;28;19944;-81
2021/10/26 10:57:54;;;;;;;;;;;;;;;;;;5073972;28;19927;-84
2021/10/26 11:00:22;;;;;;;;;;;;;;;;;;5093833;28;20292;-81
2021/10/26 11:02:48;;;;;;;;;;;;;;;;;;5092370;28;19916;-83
2021/10/26 11:05:36;;;;;;;;;;;;;;;;;;5093414;28;20003;-81
2021/10/26 11:08:11;;;;;;;;;;;;;;;;;;5093598;28;19916;-85
2021/10/26 11:10:49;;;;;;;;;;;;;;;;;;5092083;28;19920;-82
2021/10/26 11:13:19;;;;;;;;;;;;;;;;;;5093357;28;19920;-81
2021/10/26 11:15:45;;;;;;;;;;;;;;;;;;5092155;28;20425;-83
2021/10/26 11:18:31;;;;;;;;;;;;;;;;;;5093221;28;19916;-84
2021/10/26 11:20:56;;;;;;;;;;;;;;;;;;5093170;28;20285;-84
2021/10/26 11:23:31;;;;;;;;;;;;;;;;;;5093215;28;19916;-81
2021/10/26 11:25:58;;;;;;;;;;;;;;;;;;5091243;28;19967;-79
2021/10/26 11:28:25;;;;;;;;;;;;;;;;;;5093148;28;19995;-83
2021/10/26 11:30:59;;;;;;;;;;;;;;;;;;5092621;28;19920;-85
2021/10/26 11:33:25;;;;;;;;;;;;;;;;;;5093400;28;19924;-82
2021/10/26 11:36:07;;;;;;;;;;;;;;;;;;5092428;28;19920;-83
2021/10/26 11:38:33;;;;;;;;;;;;;;;;;;5093143;28;19969;-82
2021/10/26 11:40:59;;;;;;;;;;;;;;;;;;5092721;28;20342;-78
2021/10/26 11:43:25;;;;;;;;;;;;;;;;;;5093479;28;20004;-79
2021/10/26 11:52:12;;;;;;;;;;;;;;;;;;5092508;28;19973;-79
2021/10/26 11:54:39;;;;;;;;;;;;;;;;;;5092767;28;19917;-78
2021/10/26 11:57:05;;;;;;;;;;;;;;;;;;5092656;28;19924;-78
2021/10/26 11:59:38;;;;;;;;;;;;;;;;;;5092948;28;19920;-79
2021/10/26 12:02:06;;;;;;;;;;;;;;;;;;5092890;28;19923;-83
2021/10/26 12:04:36;;;;;;;;;;;;;;;;;;5092855;28;19951;-81
2021/10/26 12:07:02;;;;;;;;;;;;;;;;;;5092737;28;19960;-79
2021/10/26 12:09:28;;;;;;;;;;;;;;;;;;5092844;28;19920;-78
2021/10/26 12:11:55;;;;;;;;;;;;;;;;;;5092444;28;20417;-78
2021/10/26 12:14:22;;;;;;;;;;;;;;;;;;5092717;28;20391;-82
2021/10/26 12:17:06;;;;;;;;;;;;;;;;;;5091383;28;19915;-76
2021/10/26 12:19:33;;;;;;;;;;;;;;;;;;5092753;28;19969;-77
2021/10/26 12:21:59;;;;;;;;;;;;;;;;;;5092591;28;19920;-76
2021/10/26 12:24:25;;;;;;;;;;;;;;;;;;5092679;28;19989;-83
2021/10/26 12:27:00;;;;;;;;;;;;;;;;;;5093327;28;19916;-79
2021/10/26 12:29:30;;;;;;;;;;;;;;;;;;5092706;28;19920;-77
2021/10/26 12:31:56;;;;;;;;;;;;;;;;;;5092541;28;19920;-80
2021/10/26 12:34:21;;;;;;;;;;;;;;;;;;5096012;28;19999;-79
2021/10/26 12:36:46;;;;;;;;;;;;;;;;;;5097197;28;20409;-78
2021/10/26 12:39:22;;;;;;;;;;;;;;;;;;5093503;28;20403;-79
2021/10/26 12:41:47;;;;;;;;;;;;;;;;;;5096743;28;19922;-82
2021/10/26 12:44:18;;;;;;;;;;;;;;;;;;5096350;28;20003;-79
2021/10/26 12:46:43;;;;;;;;;;;;;;;;;;5096331;28;20403;-81
2021/10/26 12:49:09;;;;;;;;;;;;;;;;;;5096170;28;19942;-80
2021/10/26 12:51:36;;;;;;;;;;;;;;;;;;5098487;28;19965;-80
2021/10/26 12:54:19;;;;;;;;;;;;;;;;;;5097164;28;19920;-79
2021/10/26 12:56:52;;;;;;;;;;;;;;;;;;5094986;28;19920;-78
2021/10/26 12:59:18;;;;;;;;;;;;;;;;;;5097689;28;19916;-78
2021/10/26 13:10:54;;;;;;;;;;;;;;;;;;5082153;28;19931;-80
2021/10/26 13:13:23;;;;;;;;;;;;;;;;;;5087242;28;19958;-81
2021/10/26 13:15:49;;;;;;;;;;;;;;;;;;5088874;28;19924;-81
2021/10/26 13:18:23;;;;;;;;;;;;;;;;;;5084014;28;19943;-81
2021/10/26 13:20:53;;;;;;;;;;;;;;;;;;5079937;28;19919;-84
2021/10/26 13:23:18;;;;;;;;;;;;;;;;;;5081511;28;20415;-80
2021/10/26 13:25:48;;;;;;;;;;;;;;;;;;5085679;28;19924;-84
2021/10/26 13:28:18;;;;;;;;;;;;;;;;;;5079986;28;19924;-79
2021/10/26 13:30:49;;;;;;;;;;;;;;;;;;5080293;28;19931;-80
2021/10/26 13:33:14;;;;;;;;;;;;;;;;;;5079952;28;20384;-79
2021/10/26 13:35:41;;;;;;;;;;;;;;;;;;5080802;28;19959;-78
2021/10/26 13:38:06;;;;;;;;;;;;;;;;;;5078895;28;19928;-78
2021/10/26 13:40:32;;;;;;;;;;;;;;;;;;5079391;28;20269;-80
2021/10/26 13:42:57;;;;;;;;;;;;;;;;;;5082879;28;20421;-81
2021/10/26 13:45:23;;;;;;;;;;;;;;;;;;5081258;28;19928;-81
2021/10/26 13:47:48;;;;;;;;;;;;;;;;;;5080572;28;19981;-78
2021/10/26 13:50:14;;;;;;;;;;;;;;;;;;5081741;28;20291;-80
2021/10/26 13:52:40;;;;;;;;;;;;;;;;;;5083120;28;19920;-86
2021/10/26 13:55:06;;;;;;;;;;;;;;;;;;5082843;28;20028;-79
2021/10/26 13:57:32;;;;;;;;;;;;;;;;;;5085186;28;19923;-83
2021/10/26 13:59:57;;;;;;;;;;;;;;;;;;5082754;28;19920;-83
2021/10/26 14:02:23;;;;;;;;;;;;;;;;;;5089627;28;19962;-87
2021/10/26 14:04:49;;;;;;;;;;;;;;;;;;5075806;28;19916;-84
2021/10/26 14:07:14;;;;;;;;;;;;;;;;;;5087353;28;19981;-80
2021/10/26 14:09:39;;;;;;;;;;;;;;;;;;5088057;28;20410;-81
2021/10/26 14:12:05;;;;;;;;;;;;;;;;;;5096949;28;19924;-79
2021/10/26 14:14:31;;;;;;;;;;;;;;;;;;5102140;28;19916;-81
2021/10/26 14:16:56;;;;;;;;;;;;;;;;;;5088861;28;19920;-80
2021/10/26 14:19:22;;;;;;;;;;;;;;;;;;5094983;28;20483;-80
2021/10/26 14:21:50;;;;;;;;;;;;;;;;;;5089918;28;20376;-78
2021/10/26 14:24:16;;;;;;;;;;;;;;;;;;5083332;28;19921;-79
2021/10/26 14:26:42;;;;;;;;;;;;;;;;;;5074274;28;19917;-78
2021/10/26 14:29:07;;;;;;;;;;;;;;;;;;5078448;28;19920;-81
2021/10/26 14:31:33;;;;;;;;;;;;;;;;;;5094870;28;19926;-89
2021/10/26 14:33:58;;;;;;;;;;;;;;;;;;5094838;28;19927;-83
2021/10/26 14:39:16;;;;;;;;;;;;;;;;;;5086048;28;20019;-80
2021/10/26 14:55:08;;;;;;;;;;;;;;;;;;5092761;28;20383;-81
2021/10/26 14:57:34;;;;;;;;;;;;;;;;;;5089500;28;20330;-81
2021/10/26 15:00:00;;;;;;;;;;;;;;;;;;5090897;28;20419;-82
2021/10/26 15:02:25;;;;;;;;;;;;;;;;;;5094961;28;19924;-80
2021/10/26 15:04:51;;;;;;;;;;;;;;;;;;5095759;28;20528;-80
2021/10/26 15:07:18;;;;;;;;;;;;;;;;;;5095434;28;19973;-81
2021/10/26 15:09:53;;;;;;;;;;;;;;;;;;5094779;28;19922;-84
2021/10/26 15:12:23;;;;;;;;;;;;;;;;;;5095148;28;19920;-81
2021/10/26 15:14:50;;;;;;;;;;;;;;;;;;5094273;28;19920;-81
2021/10/26 15:17:16;;;;;;;;;;;;;;;;;;5094393;28;19920;-80
2021/10/26 15:19:46;;;;;;;;;;;;;;;;;;5094377;28;19942;-82
2021/10/26 15:35:35;;;;;;;;;;;;;;;;;;5073604;28;20391;-83
2021/10/26 15:38:00;;;;;;;;;;;;;;;;;;5073304;28;19916;-80
2021/10/26 15:40:26;;;;;;;;;;;;;;;;;;5079856;28;20003;-80
2021/10/26 15:42:51;;;;;;;;;;;;;;;;;;5093556;28;20015;-86
2021/10/26 15:45:17;;;;;;;;;;;;;;;;;;5093506;28;19916;-80
2021/10/26 15:47:43;;;;;;;;;;;;;;;;;;5094039;28;20006;-80
2021/10/26 15:50:09;;;;;;;;;;;;;;;;;;5084496;28;19916;-83
2021/10/26 15:52:34;;;;;;;;;;;;;;;;;;5086703;28;19965;-80
2021/10/26 15:55:00;;;;;;;;;;;;;;;;;;5082885;28;20012;-80
2021/10/26 15:57:25;;;;;;;;;;;;;;;;;;5083029;28;20361;-88
2021/10/26 15:59:51;;;;;;;;;;;;;;;;;;5091258;28;19920;-83
2021/10/26 16:02:17;;;;;;;;;;;;;;;;;;5093302;28;19913;-83
2021/10/26 16:04:43;;;;;;;;;;;;;;;;;;5093207;28;20265;-80
2021/10/26 16:07:09;;;;;;;;;;;;;;;;;;5092977;28;19923;-81
2021/10/26 16:09:58;;;;;;;;;;;;;;;;;;5094860;28;19974;-79
2021/10/26 16:12:27;;;;;;;;;;;;;;;;;;5091394;28;19924;-80
2021/10/26 16:15:05;;;;;;;;;;;;;;;;;;5094563;28;19924;-81
2021/10/26 16:17:32;;;;;;;;;;;;;;;;;;5089974;28;19923;-80
2021/10/26 16:19:57;;;;;;;;;;;;;;;;;;5096669;28;20288;-79
2021/10/26 16:22:23;;;;;;;;;;;;;;;;;;5096500;28;20014;-79
2021/10/26 16:24:48;;;;;;;;;;;;;;;;;;5096889;28;19923;-80
2021/10/26 16:27:13;;;;;;;;;;;;;;;;;;5096792;28;20006;-80
2021/10/26 16:29:40;;;;;;;;;;;;;;;;;;5087187;28;19920;-80
2021/10/26 16:32:08;;;;;;;;;;;;;;;;;;5083555;28;20414;-84
2021/10/26 16:34:33;;;;;;;;;;;;;;;;;;5094674;28;19920;-80
2021/10/26 16:37:01;;;;;;;;;;;;;;;;;;5096603;28;19998;-80
2021/10/26 16:39:26;;;;;;;;;;;;;;;;;;5096537;28;19926;-82
2021/10/26 16:41:55;;;;;;;;;;;;;;;;;;5096355;28;19920;-79
2021/10/26 16:44:30;;;;;;;;;;;;;;;;;;5096546;28;19923;-80
2021/10/26 16:47:07;;;;;;;;;;;;;;;;;;5095127;28;20010;-80
2021/10/26 16:49:36;;;;;;;;;;;;;;;;;;5096387;28;20269;-80
2021/10/26 16:52:02;;;;;;;;;;;;;;;;;;5097548;28;19916;-80
2021/10/26 16:54:27;;;;;;;;;;;;;;;;;;5097940;28;19960;-79
2021/10/26 16:56:53;;;;;;;;;;;;;;;;;;5096336;28;20304;-78
2021/10/26 16:59:18;;;;;;;;;;;;;;;;;;5097993;28;20368;-80
2021/10/26 17:01:44;;;;;;;;;;;;;;;;;;5098550;28;20372;-80
2021/10/26 17:04:11;;;;;;;;;;;;;;;;;;5097418;28;19920;-80
2021/10/26 17:06:38;;;;;;;;;;;;;;;;;;5092230;28;19920;-83
2021/10/26 17:09:06;;;;;;;;;;;;;;;;;;5076958;28;19916;-85
2021/10/26 17:11:32;;;;;;;;;;;;;;;;;;5075561;28;19921;-80
2021/10/26 17:13:59;;;;;;;;;;;;;;;;;;5085342;28;20016;-84
2021/10/26 17:16:25;;;;;;;;;;;;;;;;;;5095766;28;19927;-80
2021/10/26 17:18:50;;;;;;;;;;;;;;;;;;5095681;28;19920;-85
2021/10/26 17:21:16;;;;;;;;;;;;;;;;;;5091722;28;19965;-80
2021/10/26 17:23:41;;;;;;;;;;;;;;;;;;5096146;28;19916;-82
2021/10/26 17:26:12;;;;;;;;;;;;;;;;;;5096470;28;19916;-86
2021/10/26 17:28:38;;;;;;;;;;;;;;;;;;5095924;28;19923;-88
2021/10/26 17:31:04;;;;;;;;;;;;;;;;;;5096036;28;19916;-84
2021/10/26 17:33:30;;;;;;;;;;;;;;;;;;5098142;28;19916;-81
2021/10/26 17:35:57;;;;;;;;;;;;;;;;;;5099090;28;20372;-86
2021/10/26 17:38:23;;;;;;;;;;;;;;;;;;5099077;28;19923;-80
2021/10/26 17:43:33;;;;;;;;;;;;;;;;;;5096585;28;19969;-81